createdAt,value
2019-05-23T00:02:39.665Z,2.87
2019-05-23T00:05:12.984Z,2.60
2019-05-23T00:07:41.907Z,2.87
2019-05-23T00:10:12.276Z,2.47
2019-05-23T00:13:00.379Z,2.50
2019-05-23T00:15:31.884Z,2.43
2019-05-23T00:18:01.127Z,2.43
2019-05-23T00:20:29.997Z,3.00
2019-05-23T00:22:58.239Z,2.73
2019-05-23T00:25:27.266Z,2.40
2019-05-23T00:27:55.701Z,2.60
2019-05-23T00:30:29.120Z,2.70
2019-05-23T00:32:58.638Z,2.90
2019-05-23T00:35:27.537Z,2.83
2019-05-23T00:37:55.347Z,2.80
2019-05-23T00:40:22.839Z,2.67
2019-05-23T00:42:51.184Z,2.73
2019-05-23T00:45:20.394Z,2.70
2019-05-23T00:47:48.703Z,2.70
2019-05-23T00:50:20.036Z,3.00
2019-05-23T00:52:48.986Z,2.60
2019-05-23T00:55:16.828Z,2.87
2019-05-23T00:57:44.763Z,2.77
2019-05-23T01:00:15.733Z,2.67
2019-05-23T01:02:44.165Z,2.53
2019-05-23T01:05:12.460Z,2.57
2019-05-23T01:07:40.159Z,3.03
2019-05-23T01:10:09.181Z,2.67
2019-05-23T01:12:37.138Z,2.60
2019-05-23T01:15:06.660Z,2.57
2019-05-23T01:17:35.734Z,2.57
2019-05-23T01:20:05.628Z,3.00
2019-05-23T01:22:33.164Z,3.10
2019-05-23T01:25:00.593Z,2.83
2019-05-23T01:27:29.738Z,3.00
2019-05-23T01:29:58.176Z,2.97
2019-05-23T01:32:36.037Z,2.57
2019-05-23T01:35:04.408Z,3.00
2019-05-23T01:37:32.044Z,3.20
2019-05-23T01:39:59.581Z,2.97
2019-05-23T01:42:27.690Z,2.90
2019-05-23T01:44:57.652Z,3.10
2019-05-23T01:47:26.947Z,3.20
2019-05-23T01:49:56.280Z,2.90
2019-05-23T01:52:23.894Z,2.97
2019-05-23T01:54:51.509Z,3.00
2019-05-23T01:57:20.115Z,3.43
2019-05-23T01:59:47.763Z,2.93
2019-05-23T02:02:17.085Z,3.07
2019-05-23T02:04:45.004Z,3.30
2019-05-23T02:07:13.056Z,2.90
2019-05-23T02:09:41.092Z,3.10
2019-05-23T02:12:10.139Z,3.37
2019-05-23T02:14:38.005Z,3.00
2019-05-23T02:17:06.692Z,3.37
2019-05-23T02:19:35.027Z,3.23
2019-05-23T02:22:02.861Z,3.47
2019-05-23T02:24:30.891Z,3.37
2019-05-23T02:26:59.292Z,3.20
2019-05-23T02:29:27.243Z,3.20
2019-05-23T02:31:55.300Z,3.40
2019-05-23T02:34:23.813Z,3.17
2019-05-23T02:36:56.959Z,3.47
2019-05-23T02:39:50.000Z,3.20
2019-05-23T02:42:24.526Z,3.40
2019-05-23T02:44:52.357Z,3.10
2019-05-23T02:47:28.910Z,3.07
2019-05-23T02:49:58.634Z,3.17
2019-05-23T02:52:36.939Z,3.47
2019-05-23T02:55:11.552Z,3.50
2019-05-23T02:57:41.671Z,3.53
2019-05-23T03:00:53.738Z,3.13
2019-05-23T03:03:13.574Z,3.70
2019-05-23T03:05:41.598Z,3.00
2019-05-23T03:08:11.773Z,3.77
2019-05-23T03:10:52.404Z,3.60
2019-05-23T03:13:22.979Z,3.30
2019-05-23T03:15:51.214Z,3.13
2019-05-23T03:18:20.042Z,3.30
2019-05-23T03:20:50.123Z,3.43
2019-05-23T03:23:18.471Z,3.17
2019-05-23T03:26:27.798Z,3.80
2019-05-23T03:28:55.812Z,3.80
2019-05-23T03:31:40.650Z,4.47
2019-05-23T03:34:09.766Z,3.50
2019-05-23T03:36:37.900Z,3.53
2019-05-23T03:39:07.115Z,3.87
2019-05-23T03:41:35.393Z,3.57
2019-05-23T03:44:04.450Z,3.47
2019-05-23T03:46:33.790Z,3.43
2019-05-23T03:49:01.812Z,3.57
2019-05-23T03:51:29.588Z,3.47
2019-05-23T03:53:57.339Z,3.43
2019-05-23T03:56:26.499Z,2.97
2019-05-23T03:58:56.168Z,3.87
2019-05-23T04:01:43.988Z,3.70
2019-05-23T04:03:56.512Z,3.63
2019-05-23T04:06:24.962Z,3.13
2019-05-23T04:08:53.538Z,3.27
2019-05-23T04:11:21.245Z,3.77
2019-05-23T04:13:49.178Z,3.20
2019-05-23T04:16:17.022Z,3.27
2019-05-23T04:18:44.903Z,3.97
2019-05-23T04:21:13.530Z,3.90
2019-05-23T04:23:41.873Z,3.60
2019-05-23T04:26:10.351Z,3.50
2019-05-23T04:28:38.090Z,3.67
2019-05-23T04:31:05.580Z,3.90
2019-05-23T04:33:34.002Z,3.77
2019-05-23T04:36:04.114Z,4.00
2019-05-23T04:38:35.830Z,3.57
2019-05-23T04:41:01.142Z,3.80
2019-05-23T04:43:28.647Z,4.23
2019-05-23T04:45:56.495Z,4.00
2019-05-23T04:48:24.302Z,4.10
2019-05-23T04:50:52.481Z,4.40
2019-05-23T04:53:20.106Z,4.20
2019-05-23T04:55:47.925Z,3.90
2019-05-23T04:58:16.569Z,4.30
2019-05-23T05:00:44.226Z,4.30
2019-05-23T05:03:12.975Z,4.10
2019-05-23T05:05:41.044Z,4.47
2019-05-23T05:08:08.910Z,4.80
2019-05-23T05:10:36.673Z,4.40
2019-05-23T05:13:04.420Z,4.63
2019-05-23T05:15:32.227Z,4.57
2019-05-23T05:18:00.574Z,4.10
2019-05-23T05:20:28.395Z,4.80
2019-05-23T05:22:56.764Z,4.80
2019-05-23T05:25:24.393Z,10.70
2019-05-23T05:27:52.255Z,5.03
2019-05-23T05:30:21.875Z,4.83
2019-05-23T05:32:49.397Z,4.67
2019-05-23T05:35:18.451Z,4.30
2019-05-23T05:37:46.018Z,4.80
2019-05-23T05:40:14.291Z,4.33
2019-05-23T05:42:45.407Z,5.10
2019-05-23T05:45:13.444Z,4.80
2019-05-23T05:47:41.820Z,4.87
2019-05-23T05:50:12.268Z,5.20
2019-05-23T05:52:40.488Z,4.93
2019-05-23T05:55:08.320Z,4.90
2019-05-23T05:57:36.149Z,4.70
2019-05-23T06:00:06.405Z,5.60
2019-05-23T06:02:34.106Z,5.53
2019-05-23T06:05:01.824Z,5.00
2019-05-23T06:07:36.438Z,5.37
2019-05-23T06:10:08.436Z,5.10
2019-05-23T06:12:36.162Z,5.07
2019-05-23T06:15:04.942Z,5.87
2019-05-23T06:17:32.560Z,5.70
2019-05-23T06:20:00.172Z,5.90
2019-05-23T06:22:29.892Z,5.97
2019-05-23T06:24:58.300Z,6.33
2019-05-23T06:27:26.093Z,5.90
2019-05-23T06:29:53.630Z,6.67
2019-05-23T06:32:23.600Z,6.40
2019-05-23T06:34:51.818Z,6.30
2019-05-23T06:37:21.305Z,5.93
2019-05-23T06:39:49.366Z,6.30
2019-05-23T06:42:17.140Z,6.00
2019-05-23T06:44:44.650Z,6.30
2019-05-23T06:47:12.175Z,5.87
2019-05-23T06:49:39.874Z,6.10
2019-05-23T06:52:07.558Z,5.60
2019-05-23T06:54:35.209Z,6.00
2019-05-23T06:57:02.811Z,5.90
2019-05-23T06:59:30.352Z,6.43
2019-05-23T07:01:58.078Z,7.00
2019-05-23T07:04:26.050Z,6.47
2019-05-23T07:06:54.417Z,6.70
2019-05-23T07:09:21.974Z,7.10
2019-05-23T07:11:52.495Z,7.70
2019-05-23T07:14:20.148Z,8.70
2019-05-23T07:16:50.178Z,8.77
2019-05-23T07:19:17.910Z,8.30
2019-05-23T07:21:45.351Z,8.57
2019-05-23T07:24:12.996Z,7.97
2019-05-23T07:26:40.741Z,7.67
2019-05-23T07:29:10.486Z,7.97
2019-05-23T07:31:38.034Z,7.30
2019-05-23T07:34:05.656Z,8.13
2019-05-23T07:36:33.496Z,7.80
2019-05-23T07:39:01.057Z,7.50
2019-05-23T07:41:28.886Z,7.80
2019-05-23T07:43:56.303Z,6.93
2019-05-23T07:46:23.842Z,6.97
2019-05-23T07:48:51.453Z,7.20
2019-05-23T07:51:19.009Z,6.83
2019-05-23T07:54:12.136Z,6.83
2019-05-23T07:56:40.101Z,6.97
2019-05-23T07:59:09.815Z,6.77
2019-05-23T08:01:40.642Z,6.90
2019-05-23T08:04:20.566Z,6.80
2019-05-23T08:06:37.872Z,6.93
2019-05-23T08:09:07.601Z,5.90
2019-05-23T08:11:35.156Z,6.00
2019-05-23T08:14:03.126Z,6.40
2019-05-23T08:16:30.794Z,6.53
2019-05-23T08:18:58.314Z,6.00
2019-05-23T08:21:25.838Z,6.07
2019-05-23T08:23:53.569Z,5.80
2019-05-23T08:26:23.988Z,5.90
2019-05-23T08:29:12.254Z,5.97
2019-05-23T08:31:21.489Z,6.03
2019-05-23T08:33:49.111Z,5.67
2019-05-23T08:36:17.163Z,5.33
2019-05-23T08:38:44.980Z,5.53
2019-05-23T08:41:13.201Z,4.97
2019-05-23T08:43:40.721Z,5.17
2019-05-23T08:46:08.297Z,4.53
2019-05-23T08:48:35.863Z,5.00
2019-05-23T08:51:04.339Z,4.80
2019-05-23T08:53:32.431Z,4.30
2019-05-23T08:56:00.053Z,4.50
2019-05-23T08:58:27.754Z,4.83
2019-05-23T09:00:55.318Z,4.60
2019-05-23T09:03:22.948Z,4.87
2019-05-23T09:05:52.288Z,4.30
2019-05-23T09:08:21.350Z,4.90
2019-05-23T09:10:49.389Z,5.03
2019-05-23T09:13:17.137Z,4.90
2019-05-23T09:15:44.845Z,4.50
2019-05-23T09:18:12.772Z,4.43
2019-05-23T09:20:40.314Z,4.03
2019-05-23T09:23:08.470Z,4.27
2019-05-23T09:25:35.976Z,4.20
2019-05-23T09:28:05.018Z,4.07
2019-05-23T09:30:32.547Z,3.60
2019-05-23T09:33:00.099Z,3.83
2019-05-23T09:35:27.735Z,3.40
2019-05-23T09:37:55.488Z,2.80
2019-05-23T09:40:23.030Z,3.30
2019-05-23T09:42:51.535Z,3.40
2019-05-23T09:45:19.147Z,3.50
2019-05-23T09:47:50.941Z,3.13
2019-05-23T09:50:17.729Z,2.77
2019-05-23T09:52:45.286Z,2.73
2019-05-23T09:55:13.085Z,2.57
2019-05-23T09:57:40.815Z,2.50
2019-05-23T10:00:17.160Z,1.83
2019-05-23T10:02:44.659Z,1.63
2019-05-23T10:05:12.394Z,2.03
2019-05-23T10:07:40.017Z,1.97
2019-05-23T10:10:08.756Z,1.50
2019-05-23T10:12:36.280Z,1.60
2019-05-23T10:15:07.658Z,1.90
2019-05-23T10:17:35.186Z,1.70
2019-05-23T10:20:02.754Z,1.60
2019-05-23T10:22:30.486Z,1.47
2019-05-23T10:24:58.068Z,1.50
2019-05-23T10:27:25.696Z,1.77
2019-05-23T10:29:53.341Z,1.90
2019-05-23T10:32:21.059Z,1.53
2019-05-23T10:34:48.530Z,1.70
2019-05-23T10:37:17.874Z,1.80
2019-05-23T10:39:52.226Z,2.27
2019-05-23T10:42:20.418Z,2.27
2019-05-23T10:44:47.991Z,1.70
2019-05-23T10:47:15.504Z,1.80
2019-05-23T10:49:43.452Z,1.60
2019-05-23T10:52:10.959Z,1.53
2019-05-23T10:54:38.503Z,1.50
2019-05-23T10:57:06.015Z,1.90
2019-05-23T10:59:33.436Z,1.80
2019-05-23T11:02:00.939Z,2.40
2019-05-23T11:04:28.631Z,2.40
2019-05-23T11:06:56.589Z,2.10
2019-05-23T11:09:37.337Z,2.17
2019-05-23T11:11:53.422Z,1.80
2019-05-23T11:14:20.986Z,1.50
2019-05-23T11:16:48.933Z,1.70
2019-05-23T11:19:16.687Z,1.50
2019-05-23T11:21:44.346Z,1.40
2019-05-23T11:24:13.208Z,1.50
2019-05-23T11:26:40.978Z,1.70
2019-05-23T11:29:08.495Z,1.70
2019-05-23T11:31:36.038Z,1.77
2019-05-23T11:34:04.162Z,1.70
2019-05-23T11:36:36.241Z,1.60
2019-05-23T11:39:01.145Z,1.30
2019-05-23T11:41:28.646Z,1.63
2019-05-23T11:43:59.251Z,1.40
2019-05-23T11:46:30.073Z,1.70
2019-05-23T11:48:57.696Z,1.50
2019-05-23T11:51:26.239Z,1.47
2019-05-23T11:54:06.884Z,1.67
2019-05-23T11:56:23.139Z,1.70
2019-05-23T11:58:51.106Z,1.43
2019-05-23T12:01:26.106Z,1.73
2019-05-23T12:04:01.461Z,1.50
2019-05-23T12:06:51.673Z,1.50
2019-05-23T12:09:05.848Z,1.63
2019-05-23T12:11:36.584Z,1.80
2019-05-23T12:14:03.656Z,1.73
2019-05-23T12:16:31.199Z,1.80
2019-05-23T12:18:58.783Z,1.90
2019-05-23T12:21:26.367Z,2.10
2019-05-23T12:23:53.864Z,1.90
2019-05-23T12:26:21.407Z,2.00
2019-05-23T12:28:49.171Z,2.30
2019-05-23T12:31:17.521Z,2.40
2019-05-23T12:33:44.996Z,2.10
2019-05-23T12:36:13.304Z,2.37
2019-05-23T12:38:40.978Z,2.27
2019-05-23T12:41:10.125Z,2.30
2019-05-23T12:43:37.652Z,2.73
2019-05-23T12:46:05.324Z,2.80
2019-05-23T12:48:40.480Z,2.83
2019-05-23T12:51:09.305Z,3.80
2019-05-23T12:53:36.898Z,3.90
2019-05-23T12:56:04.563Z,3.70
2019-05-23T12:58:34.048Z,3.17
2019-05-23T13:01:02.290Z,3.60
2019-05-23T13:03:30.428Z,4.20
2019-05-23T13:05:58.044Z,3.90
2019-05-23T13:08:25.633Z,4.07
2019-05-23T13:10:53.134Z,4.07
2019-05-23T13:13:20.730Z,4.40
2019-05-23T13:15:48.293Z,4.47
2019-05-23T13:18:15.917Z,4.10
2019-05-23T13:20:44.482Z,4.40
2019-05-23T13:23:20.439Z,4.20
2019-05-23T13:25:41.862Z,4.07
2019-05-23T13:28:10.527Z,4.00
2019-05-23T13:30:38.018Z,4.90
2019-05-23T13:33:05.560Z,4.47
2019-05-23T13:35:33.586Z,4.33
2019-05-23T13:38:01.240Z,4.90
2019-05-23T13:40:29.174Z,4.80
2019-05-23T13:42:57.083Z,4.33
2019-05-23T13:45:24.661Z,4.30
2019-05-23T13:47:52.222Z,4.47
2019-05-23T13:50:20.334Z,4.87
2019-05-23T13:52:48.413Z,4.83
2019-05-23T13:55:16.432Z,4.10
2019-05-23T13:57:44.190Z,4.60
2019-05-23T14:00:17.564Z,3.97
2019-05-23T14:02:46.508Z,3.80
2019-05-23T14:05:18.748Z,4.30
2019-05-23T14:07:43.857Z,4.20
2019-05-23T14:10:13.570Z,4.57
2019-05-23T14:12:41.479Z,4.23
2019-05-23T14:15:10.629Z,4.83
2019-05-23T14:17:41.840Z,4.20
2019-05-23T14:20:09.415Z,4.40
2019-05-23T14:22:41.019Z,4.03
2019-05-23T14:25:08.710Z,3.03
2019-05-23T14:27:51.087Z,3.53
2019-05-23T14:30:36.547Z,4.40
2019-05-23T14:33:06.394Z,4.13
2019-05-23T14:35:37.083Z,3.90
2019-05-23T14:38:06.585Z,4.50
2019-05-23T14:40:34.301Z,3.40
2019-05-23T14:43:08.166Z,3.30
2019-05-23T14:45:46.525Z,3.63
2019-05-23T14:48:29.964Z,3.43
2019-05-23T14:51:05.209Z,3.50
2019-05-23T14:53:34.426Z,3.53
2019-05-23T14:56:03.069Z,3.63
2019-05-23T14:58:33.216Z,3.40
2019-05-23T15:01:00.798Z,3.47
2019-05-23T15:03:29.444Z,3.40
2019-05-23T15:05:57.956Z,3.53
2019-05-23T15:08:25.576Z,3.30
2019-05-23T15:10:53.145Z,3.60
2019-05-23T15:13:20.677Z,3.60
2019-05-23T15:15:48.152Z,3.80
2019-05-23T15:18:17.774Z,3.50
2019-05-23T15:20:48.249Z,3.30
2019-05-23T15:23:15.874Z,3.17
2019-05-23T15:25:43.406Z,3.00
2019-05-23T15:28:11.937Z,2.90
2019-05-23T15:30:39.655Z,2.90
2019-05-23T15:33:07.254Z,3.37
2019-05-23T15:35:36.779Z,3.53
2019-05-23T15:38:04.565Z,2.60
2019-05-23T15:40:32.254Z,2.60
2019-05-23T15:42:59.942Z,2.90
2019-05-23T15:45:27.418Z,2.60
2019-05-23T15:48:02.382Z,3.20
2019-05-23T15:50:36.579Z,2.73
2019-05-23T15:53:24.605Z,2.60
2019-05-23T15:56:23.957Z,2.90
2019-05-23T15:58:39.651Z,2.67
2019-05-23T16:01:16.345Z,2.70
2019-05-23T16:04:05.437Z,3.53
2019-05-23T16:06:33.914Z,3.97
2019-05-23T16:09:01.735Z,3.17
2019-05-23T16:11:29.340Z,3.10
2019-05-23T16:13:59.982Z,2.67
2019-05-23T16:16:35.813Z,3.00
2019-05-23T16:19:11.145Z,3.63
2019-05-23T16:21:39.870Z,3.37
2019-05-23T16:24:08.914Z,2.43
2019-05-23T16:26:41.982Z,2.23
2019-05-23T16:29:13.104Z,2.47
2019-05-23T16:31:41.251Z,3.20
2019-05-23T16:34:08.781Z,2.30
2019-05-23T16:36:36.378Z,2.80
2019-05-23T16:39:06.411Z,2.30
2019-05-23T16:41:33.958Z,2.47
2019-05-23T16:44:05.050Z,2.30
2019-05-23T16:46:42.426Z,2.33
2019-05-23T16:49:11.231Z,2.60
2019-05-23T16:51:38.803Z,2.30
2019-05-23T16:54:06.319Z,2.20
2019-05-23T16:56:47.891Z,1.93
2019-05-23T16:59:20.555Z,2.17
2019-05-23T17:02:05.646Z,1.97
2019-05-23T17:05:08.440Z,2.47
2019-05-23T17:07:40.885Z,2.20
2019-05-23T17:10:30.884Z,2.87
2019-05-23T17:13:12.406Z,2.40
2019-05-23T17:16:04.923Z,2.23
2019-05-23T17:18:59.428Z,2.50
2019-05-23T17:21:41.210Z,2.40
2019-05-23T17:24:25.580Z,2.47
2019-05-23T17:27:21.918Z,2.43
2019-05-23T17:29:52.900Z,2.40
2019-05-23T17:32:24.839Z,2.10
2019-05-23T17:34:52.604Z,2.10
2019-05-23T17:37:21.108Z,2.10
2019-05-23T17:39:48.724Z,2.10
2019-05-23T17:42:16.337Z,2.60
2019-05-23T17:44:43.921Z,2.60
2019-05-23T17:47:11.479Z,1.97
2019-05-23T17:49:39.182Z,2.40
2019-05-23T17:52:07.122Z,2.07
2019-05-23T17:54:34.716Z,2.20
2019-05-23T17:57:03.418Z,2.00
2019-05-23T17:59:31.321Z,1.93
2019-05-23T18:01:59.210Z,2.60
2019-05-23T18:04:27.361Z,2.50
2019-05-23T18:06:55.135Z,2.20
2019-05-23T18:09:23.255Z,2.30
2019-05-23T18:11:50.990Z,2.40
2019-05-23T18:14:18.770Z,2.20
2019-05-23T18:16:47.341Z,2.10
2019-05-23T18:19:14.872Z,2.30
2019-05-23T18:21:42.683Z,1.90
2019-05-23T18:24:11.051Z,2.10
2019-05-23T18:26:42.914Z,1.90
2019-05-23T18:29:10.705Z,1.90
2019-05-23T18:31:40.234Z,2.10
2019-05-23T18:34:08.765Z,2.30
2019-05-23T18:36:37.406Z,2.00
2019-05-23T18:39:06.906Z,2.23
2019-05-23T18:41:34.847Z,2.13
2019-05-23T18:44:03.705Z,1.83
2019-05-23T18:46:37.669Z,2.20
2019-05-23T18:49:07.630Z,2.13
2019-05-23T18:51:36.376Z,1.77
2019-05-23T18:54:04.227Z,2.00
2019-05-23T18:56:32.916Z,1.90
2019-05-23T18:59:00.763Z,2.13
2019-05-23T19:01:30.543Z,2.20
2019-05-23T19:03:58.206Z,2.03
2019-05-23T19:06:26.832Z,2.17
2019-05-23T19:08:55.377Z,2.00
2019-05-23T19:11:23.068Z,1.70
2019-05-23T19:13:50.797Z,1.97
2019-05-23T19:16:18.370Z,2.00
2019-05-23T19:18:46.748Z,2.40
2019-05-23T19:21:15.105Z,2.00
2019-05-23T19:23:46.389Z,2.47
2019-05-23T19:26:14.229Z,2.30
2019-05-23T19:28:42.570Z,2.10
2019-05-23T19:31:10.461Z,2.07
2019-05-23T19:33:38.963Z,2.60
2019-05-23T19:36:09.921Z,1.80
2019-05-23T19:38:38.563Z,2.20
2019-05-23T19:41:06.702Z,2.13
2019-05-23T19:43:35.056Z,2.23
2019-05-23T19:46:04.269Z,2.37
2019-05-23T19:48:31.894Z,2.10
2019-05-23T19:50:59.676Z,2.50
2019-05-23T19:53:27.989Z,2.80
2019-05-23T19:55:56.798Z,2.60
2019-05-23T19:58:24.526Z,2.40
2019-05-23T20:00:52.690Z,2.00
2019-05-23T20:03:20.730Z,2.30
2019-05-23T20:05:49.071Z,2.33
2019-05-23T20:08:16.866Z,2.43
2019-05-23T20:10:44.954Z,2.70
2019-05-23T20:13:17.434Z,2.10
2019-05-23T20:15:45.689Z,2.67
2019-05-23T20:18:12.894Z,2.83
2019-05-23T20:20:40.523Z,2.60
2019-05-23T20:23:08.575Z,2.80
2019-05-23T20:25:38.156Z,2.70
2019-05-23T20:28:06.266Z,2.70
2019-05-23T20:30:50.842Z,3.00
2019-05-23T20:33:18.595Z,2.80
2019-05-23T20:35:46.988Z,2.63
2019-05-23T20:38:14.843Z,2.67
2019-05-23T20:40:44.777Z,2.77
2019-05-23T20:43:17.964Z,3.00
2019-05-23T20:45:45.681Z,3.00
2019-05-23T20:48:13.555Z,2.60
2019-05-23T20:50:41.268Z,2.93
2019-05-23T20:53:09.494Z,2.60
2019-05-23T20:55:37.408Z,2.33
2019-05-23T20:58:12.595Z,2.60
2019-05-23T21:01:01.275Z,2.73
2019-05-23T21:03:30.439Z,3.10
2019-05-23T21:05:58.116Z,2.50
2019-05-23T21:08:25.678Z,2.50
2019-05-23T21:10:53.254Z,2.80
2019-05-23T21:13:21.135Z,2.90
2019-05-23T21:15:49.028Z,2.70
2019-05-23T21:18:16.636Z,2.70
2019-05-23T21:20:44.449Z,2.90
2019-05-23T21:23:12.420Z,2.70
2019-05-23T21:25:42.922Z,2.70
2019-05-23T21:28:10.457Z,3.40
2019-05-23T21:30:38.000Z,3.00
2019-05-23T21:33:05.688Z,2.97
2019-05-23T21:35:33.469Z,3.00
2019-05-23T21:38:01.385Z,2.63
2019-05-23T21:40:43.613Z,2.80
2019-05-23T21:43:11.529Z,3.23
2019-05-23T21:45:39.296Z,2.90
2019-05-23T21:48:06.968Z,3.17
2019-05-23T21:50:34.555Z,3.23
2019-05-23T21:53:04.785Z,2.70
2019-05-23T21:55:36.720Z,2.90
2019-05-23T21:58:04.961Z,3.10
2019-05-23T22:01:45.465Z,2.60
2019-05-23T22:04:30.791Z,2.80
2019-05-23T22:07:00.573Z,2.87
2019-05-23T22:09:28.487Z,2.60
2019-05-23T22:11:56.568Z,2.60
2019-05-23T22:14:24.217Z,2.50
2019-05-23T22:16:53.821Z,2.80
2019-05-23T22:19:22.940Z,2.87
2019-05-23T22:21:50.640Z,2.47
2019-05-23T22:24:18.921Z,3.00
2019-05-23T22:26:46.685Z,3.10
2019-05-23T22:29:14.988Z,3.10
2019-05-23T22:31:42.984Z,2.60
2019-05-23T22:34:39.219Z,2.97
2019-05-23T22:37:19.990Z,2.97
2019-05-23T22:39:47.639Z,3.20
2019-05-23T22:42:17.147Z,2.97
2019-05-23T22:44:44.744Z,2.80
2019-05-23T22:47:12.248Z,2.80
2019-05-23T22:49:39.818Z,2.80
2019-05-23T22:52:07.613Z,2.73
2019-05-23T22:54:35.249Z,3.13
2019-05-23T22:57:03.812Z,3.17
2019-05-23T22:59:31.417Z,3.40
2019-05-23T23:01:58.940Z,3.00
2019-05-23T23:04:27.876Z,3.20
2019-05-23T23:06:55.406Z,2.73
2019-05-23T23:09:23.126Z,2.70
2019-05-23T23:11:50.747Z,3.37
2019-05-23T23:14:18.230Z,3.30
2019-05-23T23:16:46.545Z,3.33
2019-05-23T23:19:14.260Z,3.10
2019-05-23T23:21:41.836Z,3.47
2019-05-23T23:24:09.548Z,3.80
2019-05-23T23:26:38.255Z,3.33
2019-05-23T23:29:05.757Z,3.63
2019-05-23T23:31:35.851Z,3.73
2019-05-23T23:34:03.401Z,3.50
2019-05-23T23:36:31.952Z,3.80
2019-05-23T23:38:59.661Z,4.10
2019-05-23T23:41:27.196Z,3.47
2019-05-23T23:43:59.381Z,3.50
2019-05-23T23:46:42.312Z,3.80
2019-05-23T23:49:27.965Z,3.70
2019-05-23T23:52:13.578Z,3.60
2019-05-23T23:54:59.222Z,3.33
2019-05-23T23:57:44.860Z,3.57
